Airfield :
LOGIN :

Register | Disclaimer

   EN    FR    IT 

 










Legend :    VFR   Marginal VFR   IFR   Intensive IFR   Very Intensive IFR
Visi :
Ceiling :
>= 8 km
>= 3000ft
5 to 8 km
1000 to 3000 ft
1500m to 5 km
500 to 1000 ft
800 to 1500m
200 to 500 ft
< 800m
< 200 ft
Symbols :   Thunderstorms  Fog  Heavy snow  Heavy precipitations  Wind > 20 kt
SIGMETs :     Misc.  Thunderstorms  Icing  Turbulence  Mountain Waves  Volcanic Ashes






- Airport Elevation : 1079 ft


ETIK - Illesheim Air Base

CURRENT METAR :
  • 190756Z AUTO 00000KT 9999 OVC009 01/01 A3049 RMK AO2 SNE00 SLP345 P0000 T00090009 $

EXPIRED METARs :
  • 190700Z AUTO 26004KT 9999 OVC009 01/01 A3046 RMK AO2 SNE00 SLP335 $
  • 190656Z AUTO 26004KT 9999 -SN OVC009 01/01 A3046 RMK AO2 SNE06SNB21E30SNB40 SLP335 P0000 T00060006 $
  • 190640Z AUTO 28004KT 9999 -SN OVC009 01/01 A3046 RMK AO2 SNE06SNB21E30SNB40 SLP333 $
  • 190630Z AUTO 27003KT 9999 OVC009 00/00 A3045 RMK AO2 SNE06SNB21E30 SLP331 $
  • 190621Z AUTO 26004KT 9999 -SN OVC010 00/00 A3045 RMK AO2 SNE06SNB21 SLP331 $
  • 190606Z AUTO 26003KT 9999 OVC010 00/00 A3045 RMK AO2 SNE06 SLP330 $
  • 190605Z AUTO 26003KT 9999 -SN OVC010 00/00 A3045 RMK AO2 SLP330 $
  • 190524Z AUTO 00000KT 9999 BKN012 BKN019 OVC032 00/00 A3044 RMK AO2 UPB00E09 SLP328 $
  • 190509Z AUTO 27003KT 9999 FEW013 SCT019 OVC032 00/00 A3043 RMK AO2 UPB00E09 SLP324 $

Expired Forecast.



MET'MAP, your aeronautical weather chart ! - Copyright ORBIFLY December 2007 - Disclaimer

ORBIFLY MET'MAP TEAM :

Programming & Development : Alexandra Zaïnal
Concept & original design : Baudouin d'Aumeries
Assistance for programming : Marc-Olivier Méhu
Technical & hardware support : Manuel Goepfert

Contact : metmap@orbifly.com




SOURCES & CREDITS :

   NOAA